sensor_id;sensor_type;location;lat;lon;timestamp;temperature;humidity
33761;DHT22;20084;47.912;19.044;2023-11-21T00:00:10;9.20;99.90
33761;DHT22;20084;47.912;19.044;2023-11-21T00:02:38;9.20;99.90
33761;DHT22;20084;47.912;19.044;2023-11-21T00:05:09;9.20;99.90
33761;DHT22;20084;47.912;19.044;2023-11-21T00:07:39;9.10;99.90
33761;DHT22;20084;47.912;19.044;2023-11-21T00:10:05;9.10;99.90
33761;DHT22;20084;47.912;19.044;2023-11-21T00:12:31;9.10;99.90
33761;DHT22;20084;47.912;19.044;2023-11-21T00:14:57;9.10;99.90
33761;DHT22;20084;47.912;19.044;2023-11-21T00:17:23;9.10;99.90
33761;DHT22;20084;47.912;19.044;2023-11-21T00:19:49;9.20;99.90
33761;DHT22;20084;47.912;19.044;2023-11-21T00:22:17;9.20;99.90
33761;DHT22;20084;47.912;19.044;2023-11-21T00:24:43;9.20;99.90
33761;DHT22;20084;47.912;19.044;2023-11-21T00:27:09;9.20;99.90
33761;DHT22;20084;47.912;19.044;2023-11-21T00:29:35;9.40;99.90
33761;DHT22;20084;47.912;19.044;2023-11-21T00:32:00;9.50;99.90
33761;DHT22;20084;47.912;19.044;2023-11-21T00:34:26;9.60;99.90
33761;DHT22;20084;47.912;19.044;2023-11-21T00:36:52;9.70;99.90
33761;DHT22;20084;47.912;19.044;2023-11-21T00:39:17;9.70;99.90
33761;DHT22;20084;47.912;19.044;2023-11-21T00:41:43;9.80;99.90
33761;DHT22;20084;47.912;19.044;2023-11-21T00:44:10;9.80;99.90
33761;DHT22;20084;47.912;19.044;2023-11-21T00:46:36;9.70;99.90
33761;DHT22;20084;47.912;19.044;2023-11-21T00:49:02;9.60;99.90
33761;DHT22;20084;47.912;19.044;2023-11-21T00:51:29;9.50;99.90
33761;DHT22;20084;47.912;19.044;2023-11-21T00:53:55;9.40;99.90
33761;DHT22;20084;47.912;19.044;2023-11-21T00:56:21;9.40;99.90
33761;DHT22;20084;47.912;19.044;2023-11-21T00:58:47;9.30;99.90
33761;DHT22;20084;47.912;19.044;2023-11-21T01:01:15;9.20;99.90
33761;DHT22;20084;47.912;19.044;2023-11-21T01:03:41;9.20;99.90
33761;DHT22;20084;47.912;19.044;2023-11-21T01:06:07;9.10;99.90
33761;DHT22;20084;47.912;19.044;2023-11-21T01:08:34;9.00;99.90
33761;DHT22;20084;47.912;19.044;2023-11-21T01:11:01;9.00;99.90
33761;DHT22;20084;47.912;19.044;2023-11-21T01:13:27;9.00;99.90
33761;DHT22;20084;47.912;19.044;2023-11-21T01:15:53;9.00;99.90
33761;DHT22;20084;47.912;19.044;2023-11-21T01:18:19;9.00;99.90
33761;DHT22;20084;47.912;19.044;2023-11-21T01:20:44;8.90;99.90
33761;DHT22;20084;47.912;19.044;2023-11-21T01:23:12;8.90;99.90
33761;DHT22;20084;47.912;19.044;2023-11-21T01:25:38;8.90;99.90
33761;DHT22;20084;47.912;19.044;2023-11-21T01:28:04;8.90;99.90
33761;DHT22;20084;47.912;19.044;2023-11-21T01:30:29;8.90;99.90
33761;DHT22;20084;47.912;19.044;2023-11-21T01:32:55;8.80;99.90
33761;DHT22;20084;47.912;19.044;2023-11-21T01:35:22;8.90;99.90
33761;DHT22;20084;47.912;19.044;2023-11-21T01:37:47;8.90;99.90
33761;DHT22;20084;47.912;19.044;2023-11-21T01:40:14;8.90;99.90
33761;DHT22;20084;47.912;19.044;2023-11-21T01:42:40;8.90;99.90
33761;DHT22;20084;47.912;19.044;2023-11-21T01:45:06;9.00;99.90
33761;DHT22;20084;47.912;19.044;2023-11-21T01:47:33;8.90;99.90
33761;DHT22;20084;47.912;19.044;2023-11-21T01:50:02;9.00;99.90
33761;DHT22;20084;47.912;19.044;2023-11-21T01:52:30;9.10;99.90
33761;DHT22;20084;47.912;19.044;2023-11-21T01:54:55;9.20;99.90
33761;DHT22;20084;47.912;19.044;2023-11-21T01:57:22;9.20;99.90
33761;DHT22;20084;47.912;19.044;2023-11-21T01:59:49;9.20;99.90
33761;DHT22;20084;47.912;19.044;2023-11-21T02:02:15;9.20;99.90
33761;DHT22;20084;47.912;19.044;2023-11-21T02:04:41;9.30;99.90
33761;DHT22;20084;47.912;19.044;2023-11-21T02:07:06;9.30;99.90
33761;DHT22;20084;47.912;19.044;2023-11-21T02:09:32;9.30;99.90
33761;DHT22;20084;47.912;19.044;2023-11-21T02:12:03;9.30;99.90
33761;DHT22;20084;47.912;19.044;2023-11-21T02:14:30;9.40;99.90
33761;DHT22;20084;47.912;19.044;2023-11-21T02:16:56;9.40;99.90
33761;DHT22;20084;47.912;19.044;2023-11-21T02:19:26;9.40;99.90
33761;DHT22;20084;47.912;19.044;2023-11-21T02:21:53;9.40;99.90
33761;DHT22;20084;47.912;19.044;2023-11-21T02:24:22;9.40;99.90
33761;DHT22;20084;47.912;19.044;2023-11-21T02:26:48;9.30;99.90
33761;DHT22;20084;47.912;19.044;2023-11-21T02:29:20;9.30;99.90
33761;DHT22;20084;47.912;19.044;2023-11-21T02:31:53;9.30;99.90
33761;DHT22;20084;47.912;19.044;2023-11-21T02:34:21;9.30;99.90
33761;DHT22;20084;47.912;19.044;2023-11-21T02:36:47;9.30;99.90
33761;DHT22;20084;47.912;19.044;2023-11-21T02:39:15;9.10;99.90
33761;DHT22;20084;47.912;19.044;2023-11-21T02:41:40;9.00;99.90
33761;DHT22;20084;47.912;19.044;2023-11-21T02:44:06;9.10;99.90
33761;DHT22;20084;47.912;19.044;2023-11-21T02:46:35;9.00;99.90
33761;DHT22;20084;47.912;19.044;2023-11-21T02:49:05;9.00;99.90
33761;DHT22;20084;47.912;19.044;2023-11-21T02:51:32;8.90;99.90
33761;DHT22;20084;47.912;19.044;2023-11-21T02:53:58;8.90;99.90
33761;DHT22;20084;47.912;19.044;2023-11-21T02:56:27;8.90;99.90
33761;DHT22;20084;47.912;19.044;2023-11-21T02:58:55;8.90;99.90
33761;DHT22;20084;47.912;19.044;2023-11-21T03:01:21;8.80;99.90
33761;DHT22;20084;47.912;19.044;2023-11-21T03:03:46;8.80;99.90
33761;DHT22;20084;47.912;19.044;2023-11-21T03:06:19;8.80;99.90
33761;DHT22;20084;47.912;19.044;2023-11-21T03:08:45;8.70;99.90
33761;DHT22;20084;47.912;19.044;2023-11-21T03:11:11;8.60;99.90
33761;DHT22;20084;47.912;19.044;2023-11-21T03:13:41;8.70;99.90
33761;DHT22;20084;47.912;19.044;2023-11-21T03:16:11;8.70;99.90
33761;DHT22;20084;47.912;19.044;2023-11-21T03:18:38;8.60;99.90
33761;DHT22;20084;47.912;19.044;2023-11-21T03:21:04;8.50;99.90
33761;DHT22;20084;47.912;19.044;2023-11-21T03:23:31;8.40;99.90
33761;DHT22;20084;47.912;19.044;2023-11-21T03:25:57;8.50;99.90
33761;DHT22;20084;47.912;19.044;2023-11-21T03:28:23;8.40;99.90
33761;DHT22;20084;47.912;19.044;2023-11-21T03:30:49;8.40;99.90
33761;DHT22;20084;47.912;19.044;2023-11-21T03:33:15;8.40;99.90
33761;DHT22;20084;47.912;19.044;2023-11-21T03:35:40;8.40;99.90
33761;DHT22;20084;47.912;19.044;2023-11-21T03:38:07;8.40;99.90
33761;DHT22;20084;47.912;19.044;2023-11-21T03:40:35;8.50;99.90
33761;DHT22;20084;47.912;19.044;2023-11-21T03:43:00;8.10;99.90
33761;DHT22;20084;47.912;19.044;2023-11-21T03:45:26;7.80;99.90
33761;DHT22;20084;47.912;19.044;2023-11-21T03:47:52;7.70;99.90
33761;DHT22;20084;47.912;19.044;2023-11-21T03:50:17;7.70;99.90
33761;DHT22;20084;47.912;19.044;2023-11-21T03:52:43;7.70;99.90
33761;DHT22;20084;47.912;19.044;2023-11-21T03:55:09;7.80;99.90
33761;DHT22;20084;47.912;19.044;2023-11-21T03:57:36;7.90;99.90
33761;DHT22;20084;47.912;19.044;2023-11-21T04:00:01;7.80;99.90
33761;DHT22;20084;47.912;19.044;2023-11-21T04:02:29;7.60;99.90
33761;DHT22;20084;47.912;19.044;2023-11-21T04:04:57;7.50;99.90
33761;DHT22;20084;47.912;19.044;2023-11-21T04:07:22;7.50;99.90
33761;DHT22;20084;47.912;19.044;2023-11-21T04:09:48;7.40;99.90
33761;DHT22;20084;47.912;19.044;2023-11-21T04:12:14;7.40;99.90
33761;DHT22;20084;47.912;19.044;2023-11-21T04:14:39;7.40;99.90
33761;DHT22;20084;47.912;19.044;2023-11-21T04:17:05;7.50;99.90
33761;DHT22;20084;47.912;19.044;2023-11-21T04:19:31;7.40;99.90
33761;DHT22;20084;47.912;19.044;2023-11-21T04:21:56;7.50;99.90
33761;DHT22;20084;47.912;19.044;2023-11-21T04:24:22;7.40;99.90
33761;DHT22;20084;47.912;19.044;2023-11-21T04:26:47;7.50;99.90
33761;DHT22;20084;47.912;19.044;2023-11-21T04:29:13;7.50;99.90
33761;DHT22;20084;47.912;19.044;2023-11-21T04:31:39;7.50;99.90
33761;DHT22;20084;47.912;19.044;2023-11-21T04:34:04;7.50;99.90
33761;DHT22;20084;47.912;19.044;2023-11-21T04:36:30;7.50;99.90
33761;DHT22;20084;47.912;19.044;2023-11-21T04:38:56;7.50;99.90
33761;DHT22;20084;47.912;19.044;2023-11-21T04:41:22;7.50;99.90
33761;DHT22;20084;47.912;19.044;2023-11-21T04:43:48;7.50;99.90
33761;DHT22;20084;47.912;19.044;2023-11-21T04:46:14;7.50;99.90
33761;DHT22;20084;47.912;19.044;2023-11-21T04:48:40;7.60;99.90
33761;DHT22;20084;47.912;19.044;2023-11-21T04:51:05;7.60;99.90
33761;DHT22;20084;47.912;19.044;2023-11-21T04:53:32;7.60;99.90
33761;DHT22;20084;47.912;19.044;2023-11-21T04:55:57;7.50;99.90
33761;DHT22;20084;47.912;19.044;2023-11-21T04:58:23;7.40;99.90
33761;DHT22;20084;47.912;19.044;2023-11-21T05:00:48;7.30;99.90
33761;DHT22;20084;47.912;19.044;2023-11-21T05:03:15;7.20;99.90
33761;DHT22;20084;47.912;19.044;2023-11-21T05:05:40;7.20;99.90
33761;DHT22;20084;47.912;19.044;2023-11-21T05:08:06;7.20;99.90
33761;DHT22;20084;47.912;19.044;2023-11-21T05:10:31;7.30;99.90
33761;DHT22;20084;47.912;19.044;2023-11-21T05:12:57;7.30;99.90
33761;DHT22;20084;47.912;19.044;2023-11-21T05:15:23;7.20;99.90
33761;DHT22;20084;47.912;19.044;2023-11-21T05:17:50;7.20;99.90
33761;DHT22;20084;47.912;19.044;2023-11-21T05:20:17;7.20;99.90
33761;DHT22;20084;47.912;19.044;2023-11-21T05:22:47;7.10;99.90
33761;DHT22;20084;47.912;19.044;2023-11-21T05:25:14;7.10;99.90
33761;DHT22;20084;47.912;19.044;2023-11-21T05:27:39;7.20;99.90
33761;DHT22;20084;47.912;19.044;2023-11-21T05:30:05;7.30;99.90
33761;DHT22;20084;47.912;19.044;2023-11-21T05:32:34;7.30;99.90
33761;DHT22;20084;47.912;19.044;2023-11-21T05:34:59;7.30;99.90
33761;DHT22;20084;47.912;19.044;2023-11-21T05:37:25;7.10;99.90
33761;DHT22;20084;47.912;19.044;2023-11-21T05:39:53;7.00;99.90
33761;DHT22;20084;47.912;19.044;2023-11-21T05:42:18;7.00;99.90
33761;DHT22;20084;47.912;19.044;2023-11-21T05:44:46;7.00;99.90
33761;DHT22;20084;47.912;19.044;2023-11-21T05:47:11;7.00;99.90
33761;DHT22;20084;47.912;19.044;2023-11-21T05:49:39;7.00;99.90
33761;DHT22;20084;47.912;19.044;2023-11-21T05:52:04;7.00;99.90
33761;DHT22;20084;47.912;19.044;2023-11-21T05:54:31;7.10;99.90
33761;DHT22;20084;47.912;19.044;2023-11-21T05:56:56;7.10;99.90
33761;DHT22;20084;47.912;19.044;2023-11-21T05:59:23;7.10;99.90
33761;DHT22;20084;47.912;19.044;2023-11-21T06:01:48;7.20;99.90
33761;DHT22;20084;47.912;19.044;2023-11-21T06:04:14;7.20;99.90
33761;DHT22;20084;47.912;19.044;2023-11-21T06:06:40;7.30;99.90
33761;DHT22;20084;47.912;19.044;2023-11-21T06:09:05;7.30;99.90
33761;DHT22;20084;47.912;19.044;2023-11-21T06:11:33;7.30;99.90
33761;DHT22;20084;47.912;19.044;2023-11-21T06:13:59;7.20;99.90
33761;DHT22;20084;47.912;19.044;2023-11-21T06:16:25;7.10;99.90
33761;DHT22;20084;47.912;19.044;2023-11-21T06:18:51;7.10;99.90
33761;DHT22;20084;47.912;19.044;2023-11-21T06:21:16;7.00;99.90
33761;DHT22;20084;47.912;19.044;2023-11-21T06:23:43;7.00;99.90
33761;DHT22;20084;47.912;19.044;2023-11-21T06:26:09;6.90;99.90
33761;DHT22;20084;47.912;19.044;2023-11-21T06:28:35;6.80;99.90
33761;DHT22;20084;47.912;19.044;2023-11-21T06:31:01;6.80;99.90
33761;DHT22;20084;47.912;19.044;2023-11-21T06:33:31;6.80;99.90
33761;DHT22;20084;47.912;19.044;2023-11-21T06:35:57;6.80;99.90
33761;DHT22;20084;47.912;19.044;2023-11-21T06:38:22;6.90;99.90
33761;DHT22;20084;47.912;19.044;2023-11-21T06:40:48;7.00;99.90
33761;DHT22;20084;47.912;19.044;2023-11-21T06:43:13;7.10;99.90
33761;DHT22;20084;47.912;19.044;2023-11-21T06:45:39;7.10;99.90
33761;DHT22;20084;47.912;19.044;2023-11-21T06:48:05;7.30;99.90
33761;DHT22;20084;47.912;19.044;2023-11-21T06:50:30;7.30;99.90
33761;DHT22;20084;47.912;19.044;2023-11-21T06:52:56;7.30;99.90
33761;DHT22;20084;47.912;19.044;2023-11-21T06:55:22;7.40;99.90
33761;DHT22;20084;47.912;19.044;2023-11-21T06:57:47;7.50;99.90
33761;DHT22;20084;47.912;19.044;2023-11-21T07:00:15;7.50;99.90
33761;DHT22;20084;47.912;19.044;2023-11-21T07:02:43;7.50;99.90
33761;DHT22;20084;47.912;19.044;2023-11-21T07:05:09;7.50;99.90
33761;DHT22;20084;47.912;19.044;2023-11-21T07:07:35;7.60;99.90
33761;DHT22;20084;47.912;19.044;2023-11-21T07:10:03;7.60;99.90
33761;DHT22;20084;47.912;19.044;2023-11-21T07:12:30;7.70;99.90
33761;DHT22;20084;47.912;19.044;2023-11-21T07:14:56;7.80;99.90
33761;DHT22;20084;47.912;19.044;2023-11-21T07:17:22;7.90;99.90
33761;DHT22;20084;47.912;19.044;2023-11-21T07:19:48;7.90;99.90
33761;DHT22;20084;47.912;19.044;2023-11-21T07:22:15;7.90;99.90
33761;DHT22;20084;47.912;19.044;2023-11-21T07:24:48;7.90;99.90
33761;DHT22;20084;47.912;19.044;2023-11-21T07:27:15;7.90;99.90
33761;DHT22;20084;47.912;19.044;2023-11-21T07:29:40;7.90;99.90
33761;DHT22;20084;47.912;19.044;2023-11-21T07:32:06;8.00;99.90
33761;DHT22;20084;47.912;19.044;2023-11-21T07:34:32;7.90;99.90
33761;DHT22;20084;47.912;19.044;2023-11-21T07:36:57;8.00;99.90
33761;DHT22;20084;47.912;19.044;2023-11-21T07:39:23;8.10;99.90
33761;DHT22;20084;47.912;19.044;2023-11-21T07:41:49;8.10;99.90
33761;DHT22;20084;47.912;19.044;2023-11-21T07:44:18;8.20;99.90
33761;DHT22;20084;47.912;19.044;2023-11-21T07:46:45;8.20;99.90
33761;DHT22;20084;47.912;19.044;2023-11-21T07:49:11;8.30;99.90
33761;DHT22;20084;47.912;19.044;2023-11-21T07:51:37;8.30;99.90
33761;DHT22;20084;47.912;19.044;2023-11-21T07:54:03;8.30;99.90
33761;DHT22;20084;47.912;19.044;2023-11-21T07:56:28;8.30;99.90
33761;DHT22;20084;47.912;19.044;2023-11-21T07:58:54;8.30;99.90
33761;DHT22;20084;47.912;19.044;2023-11-21T08:01:19;8.40;99.90
33761;DHT22;20084;47.912;19.044;2023-11-21T08:03:45;8.40;99.90
33761;DHT22;20084;47.912;19.044;2023-11-21T08:06:11;8.50;99.90
33761;DHT22;20084;47.912;19.044;2023-11-21T08:08:37;8.50;99.90
33761;DHT22;20084;47.912;19.044;2023-11-21T08:11:03;8.50;99.90
33761;DHT22;20084;47.912;19.044;2023-11-21T08:13:29;8.50;99.90
33761;DHT22;20084;47.912;19.044;2023-11-21T08:15:58;8.50;99.90
33761;DHT22;20084;47.912;19.044;2023-11-21T08:18:28;8.50;99.90
33761;DHT22;20084;47.912;19.044;2023-11-21T08:20:54;8.50;99.90
33761;DHT22;20084;47.912;19.044;2023-11-21T08:23:20;8.50;99.90
33761;DHT22;20084;47.912;19.044;2023-11-21T08:25:50;8.50;99.90
33761;DHT22;20084;47.912;19.044;2023-11-21T08:28:16;8.50;99.90
33761;DHT22;20084;47.912;19.044;2023-11-21T08:30:41;8.50;99.90
33761;DHT22;20084;47.912;19.044;2023-11-21T08:33:08;8.50;99.90
33761;DHT22;20084;47.912;19.044;2023-11-21T08:35:34;8.50;99.90
33761;DHT22;20084;47.912;19.044;2023-11-21T08:38:00;8.50;99.90
33761;DHT22;20084;47.912;19.044;2023-11-21T08:40:26;8.60;99.90
33761;DHT22;20084;47.912;19.044;2023-11-21T08:42:52;8.70;99.90
33761;DHT22;20084;47.912;19.044;2023-11-21T08:45:18;8.70;99.90
33761;DHT22;20084;47.912;19.044;2023-11-21T08:47:45;8.70;99.90
33761;DHT22;20084;47.912;19.044;2023-11-21T08:50:11;8.80;99.90
33761;DHT22;20084;47.912;19.044;2023-11-21T08:52:38;8.80;99.90
33761;DHT22;20084;47.912;19.044;2023-11-21T08:55:05;8.90;99.90
33761;DHT22;20084;47.912;19.044;2023-11-21T08:57:36;9.00;99.90
33761;DHT22;20084;47.912;19.044;2023-11-21T09:00:08;9.10;99.90
33761;DHT22;20084;47.912;19.044;2023-11-21T09:02:42;9.20;99.90
33761;DHT22;20084;47.912;19.044;2023-11-21T09:05:09;9.30;99.90
33761;DHT22;20084;47.912;19.044;2023-11-21T09:07:40;9.30;99.90
33761;DHT22;20084;47.912;19.044;2023-11-21T09:10:07;9.30;99.90
33761;DHT22;20084;47.912;19.044;2023-11-21T09:12:33;9.40;99.90
33761;DHT22;20084;47.912;19.044;2023-11-21T09:15:04;9.50;99.90
33761;DHT22;20084;47.912;19.044;2023-11-21T09:17:31;9.50;99.90
33761;DHT22;20084;47.912;19.044;2023-11-21T09:19:57;9.50;99.90
33761;DHT22;20084;47.912;19.044;2023-11-21T09:22:22;9.60;99.90
33761;DHT22;20084;47.912;19.044;2023-11-21T09:24:50;9.60;99.90
33761;DHT22;20084;47.912;19.044;2023-11-21T09:27:16;9.70;99.90
33761;DHT22;20084;47.912;19.044;2023-11-21T09:29:43;9.70;99.90
33761;DHT22;20084;47.912;19.044;2023-11-21T09:32:08;9.80;99.90
33761;DHT22;20084;47.912;19.044;2023-11-21T09:34:37;9.70;99.90
33761;DHT22;20084;47.912;19.044;2023-11-21T09:37:04;9.80;99.90
33761;DHT22;20084;47.912;19.044;2023-11-21T09:39:32;9.80;99.90
33761;DHT22;20084;47.912;19.044;2023-11-21T09:42:12;9.80;99.90
33761;DHT22;20084;47.912;19.044;2023-11-21T09:44:51;9.90;99.90
33761;DHT22;20084;47.912;19.044;2023-11-21T09:47:21;9.90;99.90
33761;DHT22;20084;47.912;19.044;2023-11-21T09:49:48;10.00;99.90
33761;DHT22;20084;47.912;19.044;2023-11-21T09:52:27;10.10;99.90
33761;DHT22;20084;47.912;19.044;2023-11-21T09:54:55;10.20;99.90
33761;DHT22;20084;47.912;19.044;2023-11-21T09:57:24;10.20;99.90
33761;DHT22;20084;47.912;19.044;2023-11-21T09:59:51;10.20;99.90
33761;DHT22;20084;47.912;19.044;2023-11-21T10:02:23;10.20;99.90
33761;DHT22;20084;47.912;19.044;2023-11-21T10:04:51;10.20;99.90
33761;DHT22;20084;47.912;19.044;2023-11-21T10:07:19;10.20;99.90
33761;DHT22;20084;47.912;19.044;2023-11-21T10:09:46;10.30;99.90
33761;DHT22;20084;47.912;19.044;2023-11-21T10:12:15;10.30;99.90
33761;DHT22;20084;47.912;19.044;2023-11-21T10:14:41;10.40;99.90
33761;DHT22;20084;47.912;19.044;2023-11-21T10:17:10;10.40;99.90
33761;DHT22;20084;47.912;19.044;2023-11-21T10:19:39;10.50;99.90
33761;DHT22;20084;47.912;19.044;2023-11-21T10:22:05;10.50;99.90
33761;DHT22;20084;47.912;19.044;2023-11-21T10:24:32;10.50;99.90
33761;DHT22;20084;47.912;19.044;2023-11-21T10:26:58;10.50;99.90
33761;DHT22;20084;47.912;19.044;2023-11-21T10:29:24;10.50;99.90
33761;DHT22;20084;47.912;19.044;2023-11-21T10:31:52;10.50;99.90
33761;DHT22;20084;47.912;19.044;2023-11-21T10:34:20;10.60;99.90
33761;DHT22;20084;47.912;19.044;2023-11-21T10:36:47;10.60;99.90
33761;DHT22;20084;47.912;19.044;2023-11-21T10:39:17;10.70;99.90
33761;DHT22;20084;47.912;19.044;2023-11-21T10:41:47;10.70;99.90
33761;DHT22;20084;47.912;19.044;2023-11-21T10:44:14;10.60;99.90
33761;DHT22;20084;47.912;19.044;2023-11-21T10:46:49;10.50;99.90
33761;DHT22;20084;47.912;19.044;2023-11-21T10:49:20;10.60;99.90
33761;DHT22;20084;47.912;19.044;2023-11-21T10:51:45;10.60;99.90
33761;DHT22;20084;47.912;19.044;2023-11-21T10:54:11;10.60;99.90
33761;DHT22;20084;47.912;19.044;2023-11-21T10:56:39;10.70;99.90
33761;DHT22;20084;47.912;19.044;2023-11-21T10:59:11;10.60;99.90
33761;DHT22;20084;47.912;19.044;2023-11-21T11:01:46;10.50;99.90
33761;DHT22;20084;47.912;19.044;2023-11-21T11:04:14;10.50;99.90
33761;DHT22;20084;47.912;19.044;2023-11-21T11:06:57;10.40;99.90
33761;DHT22;20084;47.912;19.044;2023-11-21T11:09:23;10.30;99.90
33761;DHT22;20084;47.912;19.044;2023-11-21T11:11:51;10.30;99.90
33761;DHT22;20084;47.912;19.044;2023-11-21T11:14:19;10.20;99.90
33761;DHT22;20084;47.912;19.044;2023-11-21T11:16:45;10.30;99.90
33761;DHT22;20084;47.912;19.044;2023-11-21T11:19:10;10.40;99.90
33761;DHT22;20084;47.912;19.044;2023-11-21T11:32:57;10.30;99.90
33761;DHT22;20084;47.912;19.044;2023-11-21T11:38:17;10.40;99.90
33761;DHT22;20084;47.912;19.044;2023-11-21T11:40:47;10.40;99.90
33761;DHT22;20084;47.912;19.044;2023-11-21T11:43:13;10.40;99.90
33761;DHT22;20084;47.912;19.044;2023-11-21T11:45:38;10.40;99.90
33761;DHT22;20084;47.912;19.044;2023-11-21T11:48:08;10.50;99.90
33761;DHT22;20084;47.912;19.044;2023-11-21T11:50:33;10.50;99.90
33761;DHT22;20084;47.912;19.044;2023-11-21T11:53:14;10.60;99.90
33761;DHT22;20084;47.912;19.044;2023-11-21T11:55:39;10.70;99.90
33761;DHT22;20084;47.912;19.044;2023-11-21T11:58:08;10.60;99.90
33761;DHT22;20084;47.912;19.044;2023-11-21T12:00:35;10.50;99.90
33761;DHT22;20084;47.912;19.044;2023-11-21T12:03:04;10.40;99.90
33761;DHT22;20084;47.912;19.044;2023-11-21T12:05:32;10.50;99.90
33761;DHT22;20084;47.912;19.044;2023-11-21T12:08:01;10.50;99.90
33761;DHT22;20084;47.912;19.044;2023-11-21T12:10:29;10.60;99.90
33761;DHT22;20084;47.912;19.044;2023-11-21T12:15:22;10.70;99.90
33761;DHT22;20084;47.912;19.044;2023-11-21T12:17:49;10.70;99.90
33761;DHT22;20084;47.912;19.044;2023-11-21T12:20:18;10.70;99.90
33761;DHT22;20084;47.912;19.044;2023-11-21T12:22:48;10.70;99.90
33761;DHT22;20084;47.912;19.044;2023-11-21T12:25:19;10.80;99.90
33761;DHT22;20084;47.912;19.044;2023-11-21T12:27:45;10.70;99.90
33761;DHT22;20084;47.912;19.044;2023-11-21T12:30:12;10.70;99.90
33761;DHT22;20084;47.912;19.044;2023-11-21T12:32:42;10.80;99.90
33761;DHT22;20084;47.912;19.044;2023-11-21T12:35:11;10.80;99.90
33761;DHT22;20084;47.912;19.044;2023-11-21T12:37:38;10.90;99.90
33761;DHT22;20084;47.912;19.044;2023-11-21T12:40:06;10.80;99.90
33761;DHT22;20084;47.912;19.044;2023-11-21T12:42:33;10.90;99.90
33761;DHT22;20084;47.912;19.044;2023-11-21T12:47:41;10.80;99.90
33761;DHT22;20084;47.912;19.044;2023-11-21T12:50:08;10.80;99.90
33761;DHT22;20084;47.912;19.044;2023-11-21T12:52:44;10.90;99.90
33761;DHT22;20084;47.912;19.044;2023-11-21T12:55:32;10.90;99.90
33761;DHT22;20084;47.912;19.044;2023-11-21T12:57:58;10.90;99.90
33761;DHT22;20084;47.912;19.044;2023-11-21T13:00:34;10.90;99.90
33761;DHT22;20084;47.912;19.044;2023-11-21T13:03:04;10.90;99.90
33761;DHT22;20084;47.912;19.044;2023-11-21T13:05:32;10.90;99.90
33761;DHT22;20084;47.912;19.044;2023-11-21T13:08:00;10.90;99.90
33761;DHT22;20084;47.912;19.044;2023-11-21T13:10:29;11.00;99.90
33761;DHT22;20084;47.912;19.044;2023-11-21T13:13:00;11.10;99.90
33761;DHT22;20084;47.912;19.044;2023-11-21T13:15:27;11.10;99.90
33761;DHT22;20084;47.912;19.044;2023-11-21T13:17:53;11.00;99.90
33761;DHT22;20084;47.912;19.044;2023-11-21T13:20:20;11.00;99.90
33761;DHT22;20084;47.912;19.044;2023-11-21T13:22:50;11.00;99.90
33761;DHT22;20084;47.912;19.044;2023-11-21T13:25:38;11.10;99.90
33761;DHT22;20084;47.912;19.044;2023-11-21T13:28:06;11.20;99.90
33761;DHT22;20084;47.912;19.044;2023-11-21T13:30:33;11.50;99.90
33761;DHT22;20084;47.912;19.044;2023-11-21T13:32:59;11.70;99.90
33761;DHT22;20084;47.912;19.044;2023-11-21T13:35:36;11.90;99.90
33761;DHT22;20084;47.912;19.044;2023-11-21T13:38:10;11.90;99.90
33761;DHT22;20084;47.912;19.044;2023-11-21T13:40:40;11.90;99.90
33761;DHT22;20084;47.912;19.044;2023-11-21T13:43:11;11.90;99.90
33761;DHT22;20084;47.912;19.044;2023-11-21T13:45:41;11.80;99.90
33761;DHT22;20084;47.912;19.044;2023-11-21T13:48:08;11.80;99.90
33761;DHT22;20084;47.912;19.044;2023-11-21T13:50:42;11.80;99.90
33761;DHT22;20084;47.912;19.044;2023-11-21T13:53:21;11.70;99.90
33761;DHT22;20084;47.912;19.044;2023-11-21T13:55:51;11.60;99.90
33761;DHT22;20084;47.912;19.044;2023-11-21T13:58:20;11.50;99.90
33761;DHT22;20084;47.912;19.044;2023-11-21T14:00:53;11.30;99.90
33761;DHT22;20084;47.912;19.044;2023-11-21T14:03:23;11.20;99.90
33761;DHT22;20084;47.912;19.044;2023-11-21T14:06:03;11.10;99.90
33761;DHT22;20084;47.912;19.044;2023-11-21T14:08:34;11.00;99.90
33761;DHT22;20084;47.912;19.044;2023-11-21T14:10:59;10.90;99.90
33761;DHT22;20084;47.912;19.044;2023-11-21T14:13:28;10.90;99.90
33761;DHT22;20084;47.912;19.044;2023-11-21T14:15:54;10.80;99.90
33761;DHT22;20084;47.912;19.044;2023-11-21T14:18:24;10.80;99.90
33761;DHT22;20084;47.912;19.044;2023-11-21T14:20:56;10.80;99.90
33761;DHT22;20084;47.912;19.044;2023-11-21T14:23:21;10.70;99.90
33761;DHT22;20084;47.912;19.044;2023-11-21T14:25:49;10.60;99.90
33761;DHT22;20084;47.912;19.044;2023-11-21T14:28:15;10.60;99.90
33761;DHT22;20084;47.912;19.044;2023-11-21T14:30:41;10.70;99.90
33761;DHT22;20084;47.912;19.044;2023-11-21T14:33:08;10.70;99.90
33761;DHT22;20084;47.912;19.044;2023-11-21T14:35:35;10.70;99.90
33761;DHT22;20084;47.912;19.044;2023-11-21T14:38:01;10.60;99.90
33761;DHT22;20084;47.912;19.044;2023-11-21T14:40:28;10.40;99.90
33761;DHT22;20084;47.912;19.044;2023-11-21T14:43:02;10.30;99.90
33761;DHT22;20084;47.912;19.044;2023-11-21T14:45:31;10.20;99.90
33761;DHT22;20084;47.912;19.044;2023-11-21T14:47:57;10.20;99.90
33761;DHT22;20084;47.912;19.044;2023-11-21T14:50:32;10.10;99.90
33761;DHT22;20084;47.912;19.044;2023-11-21T14:53:08;10.00;99.90
33761;DHT22;20084;47.912;19.044;2023-11-21T14:55:37;10.00;99.90
33761;DHT22;20084;47.912;19.044;2023-11-21T14:58:15;9.90;99.90
33761;DHT22;20084;47.912;19.044;2023-11-21T15:00:47;9.70;99.90
33761;DHT22;20084;47.912;19.044;2023-11-21T15:03:13;9.60;99.90
33761;DHT22;20084;47.912;19.044;2023-11-21T15:06:00;9.50;99.90
33761;DHT22;20084;47.912;19.044;2023-11-21T15:08:45;9.40;99.90
33761;DHT22;20084;47.912;19.044;2023-11-21T15:11:14;9.30;99.90
33761;DHT22;20084;47.912;19.044;2023-11-21T15:13:41;9.10;99.90
33761;DHT22;20084;47.912;19.044;2023-11-21T15:16:08;9.00;99.90
33761;DHT22;20084;47.912;19.044;2023-11-21T15:18:35;8.90;99.90
33761;DHT22;20084;47.912;19.044;2023-11-21T15:21:01;8.80;99.90
33761;DHT22;20084;47.912;19.044;2023-11-21T15:23:29;8.70;99.90
33761;DHT22;20084;47.912;19.044;2023-11-21T15:25:56;8.50;99.90
33761;DHT22;20084;47.912;19.044;2023-11-21T15:28:23;8.30;99.90
33761;DHT22;20084;47.912;19.044;2023-11-21T15:30:50;8.20;99.90
33761;DHT22;20084;47.912;19.044;2023-11-21T15:33:17;8.10;99.90
33761;DHT22;20084;47.912;19.044;2023-11-21T15:35:43;8.00;99.90
33761;DHT22;20084;47.912;19.044;2023-11-21T15:38:08;8.00;99.90
33761;DHT22;20084;47.912;19.044;2023-11-21T15:40:34;8.00;99.90
33761;DHT22;20084;47.912;19.044;2023-11-21T15:43:00;7.90;99.90
33761;DHT22;20084;47.912;19.044;2023-11-21T15:45:28;7.70;99.90
33761;DHT22;20084;47.912;19.044;2023-11-21T15:47:54;7.60;99.90